| time (UTC) | temp F | wind direction | speed knots | gust knots | rain 1hr in | rain 24hr in | rain mn in | humidity % | barometer mb |
| 20260509032244 | 46 | 264 | 0.0 | 0.0 | 0.00 | 0.00 | 0.00 | 64 | 1007.0 |
| 20260509031742 | 46 | 264 | 0.0 | 0.0 | 0.00 | 0.00 | 0.00 | 66 | 1007.1 |
| 20260509031240 | 46 | 264 | 0.0 | 0.0 | 0.00 | 0.00 | 0.00 | 64 | 1007.4 |
| 20260509030738 | 46 | 264 | 0.0 | 0.0 | 0.00 | 0.00 | 0.00 | 66 | 1007.3 |
| 20260509030235 | 45 | 264 | 0.0 | 0.0 | 0.00 | 0.00 | 0.00 | 66 | 1007.4 |
| 20260509025732 | 45 | 264 | 0.0 | 0.0 | 0.00 | 0.00 | 0.00 | 64 | 1007.6 |
| 20260509025227 | 45 | 264 | 0.0 | 0.0 | 0.00 | 0.00 | 0.00 | 64 | 1007.8 |
| 20260509024722 | 45 | 264 | 0.0 | 0.0 | 0.00 | 0.00 | 0.00 | 61 | 1007.7 |
| 20260509024218 | 45 | 264 | 0.0 | 0.0 | 0.00 | 0.00 | 0.00 | 57 | 1007.4 |
| 20260509023716 | 45 | 264 | 0.0 | 0.0 | 0.00 | 0.00 | 0.00 | 63 | 1007.3 |
| 20260509023213 | 45 | 264 | 0.0 | 0.0 | 0.00 | 0.00 | 0.00 | 63 | 1007.4 |
| 20260509022709 | 45 | 264 | 0.0 | 0.0 | 0.00 | 0.00 | 0.00 | 61 | 1007.7 |
| 20260509022207 | 45 | 264 | 0.0 | 0.0 | 0.00 | 0.00 | 0.00 | 59 | 1007.4 |
| 20260509021704 | 45 | 264 | 0.0 | 0.0 | 0.00 | 0.00 | 0.00 | 59 | 1007.3 |
| 20260509021201 | 46 | 264 | 0.0 | 0.0 | 0.00 | 0.00 | 0.00 | 62 | 1007.7 |
| 20260509020659 | 46 | 264 | 0.0 | 0.0 | 0.00 | 0.00 | 0.00 | 57 | 1007.6 |
| 20260509020156 | 45 | 264 | 0.9 | 0.9 | 0.00 | 0.00 | 0.00 | 56 | 1007.7 |
| 20260509015654 | 46 | 264 | 0.0 | 0.0 | 0.00 | 0.00 | 0.00 | 57 | 1007.6 |
| 20260509015152 | 46 | 264 | 0.0 | 0.0 | 0.00 | 0.00 | 0.00 | 56 | 1007.4 |
| 20260509014648 | 46 | 264 | 0.0 | 0.0 | 0.00 | 0.00 | 0.00 | 55 | 1007.4 |
| 20260509014145 | 46 | 264 | 0.0 | 0.0 | 0.00 | 0.00 | 0.00 | 56 | 1007.3 |
| 20260509013642 | 47 | 264 | 0.0 | 0.0 | 0.00 | 0.00 | 0.00 | 54 | 1007.4 |
| 20260509013138 | 47 | 264 | 0.0 | 0.0 | 0.00 | 0.00 | 0.00 | 56 | 1007.3 |
| 20260509012634 | 47 | 264 | 0.0 | 0.0 | 0.00 | 0.00 | 0.00 | 55 | 1007.3 |
| 20260509012131 | 48 | 264 | 0.0 | 0.0 | 0.00 | 0.00 | 0.00 | 52 | 1007.1 |
| 20260509011630 | 48 | 264 | 0.0 | 0.0 | 0.00 | 0.00 | 0.00 | 50 | 1007.1 |
| 20260509011126 | 49 | 265 | 0.0 | 0.0 | 0.00 | 0.00 | 0.00 | 50 | 1007.1 |
| 20260509010624 | 50 | 265 | 0.0 | 0.0 | 0.00 | 0.00 | 0.00 | 50 | 1007.4 |
| 20260509010120 | 50 | 265 | 0.0 | 0.0 | 0.00 | 0.00 | 0.00 | 48 | 1007.0 |
| 20260509005618 | 51 | 265 | 0.0 | 0.0 | 0.00 | 0.00 | 0.00 | 41 | 1007.0 |
| 20260509005113 | 52 | 265 | 0.0 | 0.0 | 0.00 | 0.00 | 0.00 | 42 | 1007.0 |
| 20260509004609 | 53 | 265 | 0.0 | 0.0 | 0.00 | 0.00 | 0.00 | 43 | 1007.0 |
| 20260509004107 | 53 | 265 | 0.0 | 0.0 | 0.00 | 0.00 | 0.00 | 45 | 1007.1 |
| 20260509003605 | 53 | 265 | 0.0 | 0.0 | 0.00 | 0.00 | 0.00 | 42 | 1006.9 |
| 20260509003102 | 54 | 265 | 0.0 | 0.0 | 0.00 | 0.00 | 0.00 | 36 | 1006.8 |
| 20260509002600 | 54 | 265 | 0.0 | 0.0 | 0.00 | 0.00 | 0.00 | 35 | 1006.8 |
| 20260509002057 | 55 | 265 | 0.0 | 0.0 | 0.00 | 0.00 | 0.00 | 35 | 1006.9 |
| 20260509001554 | 55 | 265 | 0.0 | 0.0 | 0.00 | 0.00 | 0.00 | 33 | 1007.0 |
| 20260509001049 | 56 | 265 | 0.0 | 0.0 | 0.00 | 0.00 | 0.00 | 36 | 1006.7 |
| 20260509000549 | 56 | 265 | 0.0 | 0.0 | 0.00 | 0.00 | 0.00 | 35 | 1006.8 |
| 20260509000044 | 57 | 265 | 0.0 | 0.0 | 0.00 | 0.00 | 0.00 | 35 | 1006.7 |
| 20260508235542 | 57 | 265 | 0.0 | 0.0 | 0.00 | 0.00 | 0.00 | 34 | 1006.7 |
| 20260508235038 | 57 | 278 | 0.0 | 0.9 | 0.00 | 0.00 | 0.00 | 30 | 1006.8 |
| 20260508234536 | 58 | 275 | 0.0 | 0.0 | 0.00 | 0.00 | 0.00 | 37 | 1006.6 |
| 20260508234032 | 59 | 355 | 0.0 | 0.0 | 0.00 | 0.00 | 0.00 | 33 | 1006.8 |
| 20260508233532 | 59 | 344 | 1.7 | 1.7 | 0.00 | 0.00 | 0.00 | 27 | 1006.6 |
| 20260508233029 | 60 | 195 | 0.9 | 0.9 | 0.00 | 0.00 | 0.00 | 32 | 1006.6 |
| 20260508232526 | 60 | 195 | 0.0 | 0.0 | 0.00 | 0.00 | 0.00 | 27 | 1006.6 |
| 20260508232023 | 61 | 88 | 0.9 | 0.9 | 0.00 | 0.00 | 0.00 | 26 | 1006.4 |
| 20260508231520 | 61 | 172 | 0.0 | 0.0 | 0.00 | 0.00 | 0.00 | 30 | 1006.7 |
| 20260508231017 | 62 | 89 | 0.9 | 0.9 | 0.00 | 0.00 | 0.00 | 29 | 1006.6 |
| 20260508230514 | 62 | 156 | 0.9 | 0.9 | 0.00 | 0.00 | 0.00 | 26 | 1006.6 |
| 20260508230010 | 62 | 164 | 1.7 | 1.7 | 0.00 | 0.00 | 0.00 | 30 | 1006.6 |
| 20260508225508 | 62 | 206 | 1.7 | 2.6 | 0.00 | 0.00 | 0.00 | 26 | 1006.7 |
| 20260508225004 | 63 | 194 | 1.7 | 2.6 | 0.00 | 0.00 | 0.00 | 24 | 1007.0 |
| 20260508224502 | 64 | 170 | 0.0 | 0.9 | 0.00 | 0.00 | 0.00 | 25 | 1007.0 |
| 20260508223959 | 64 | 120 | 0.9 | 0.9 | 0.00 | 0.00 | 0.00 | 28 | 1006.9 |
| 20260508223457 | 65 | 247 | 0.0 | 0.0 | 0.00 | 0.00 | 0.00 | 25 | 1006.9 |
| 20260508222954 | 65 | 105 | 0.9 | 0.9 | 0.00 | 0.00 | 0.00 | 24 | 1006.7 |
| 20260508222452 | 66 | 198 | 0.9 | 0.9 | 0.00 | 0.00 | 0.00 | 24 | 1006.9 |
| 20260508221948 | 65 | 59 | 0.9 | 0.9 | 0.00 | 0.00 | 0.00 | 27 | 1006.8 |
| 20260508221444 | 66 | 204 | 0.9 | 0.9 | 0.00 | 0.00 | 0.00 | 24 | 1006.9 |
| 20260508220940 | 66 | 266 | 1.7 | 2.6 | 0.00 | 0.00 | 0.00 | 23 | 1006.8 |
| 20260508220437 | 65 | 302 | 1.7 | 1.7 | 0.00 | 0.00 | 0.00 | 23 | 1006.8 |
| 20260508215933 | 66 | 188 | 2.6 | 3.5 | 0.00 | 0.00 | 0.00 | 23 | 1006.9 |
| 20260508215431 | 66 | 246 | 0.9 | 1.7 | 0.00 | 0.00 | 0.00 | 27 | 1007.1 |
| 20260508214927 | 65 | 41 | 1.7 | 1.7 | 0.00 | 0.00 | 0.00 | 26 | 1007.0 |
| 20260508214425 | 65 | 162 | 1.7 | 1.7 | 0.00 | 0.00 | 0.00 | 25 | 1007.1 |
| 20260508213920 | 65 | 274 | 1.7 | 1.7 | 0.00 | 0.00 | 0.00 | 24 | 1007.2 |
| 20260508213418 | 65 | 279 | 0.9 | 0.9 | 0.00 | 0.00 | 0.00 | 26 | 1007.1 |
| 20260508212913 | 66 | 105 | 3.5 | 5.2 | 0.00 | 0.00 | 0.00 | 22 | 1007.2 |
| 20260508212410 | 65 | 281 | 1.7 | 2.6 | 0.00 | 0.00 | 0.00 | 24 | 1007.3 |
| 20260508211906 | 65 | 197 | 5.2 | 7.8 | 0.00 | 0.00 | 0.00 | 23 | 1007.2 |
| 20260508211402 | 64 | 240 | 1.7 | 1.7 | 0.00 | 0.00 | 0.00 | 24 | 1007.1 |
| 20260508210900 | 64 | 238 | 1.7 | 1.7 | 0.00 | 0.00 | 0.00 | 23 | 1007.4 |
| 20260508210356 | 65 | 352 | 1.7 | 2.6 | 0.00 | 0.00 | 0.00 | 26 | 1007.3 |
| 20260508205852 | 64 | 300 | 0.9 | 1.7 | 0.00 | 0.00 | 0.00 | 28 | 1007.2 |
| 20260508205349 | 64 | 195 | 1.7 | 1.7 | 0.00 | 0.00 | 0.00 | 26 | 1007.4 |
| 20260508204845 | 65 | 176 | 1.7 | 1.7 | 0.00 | 0.00 | 0.00 | 25 | 1007.7 |
| 20260508204343 | 65 | 60 | 0.9 | 0.9 | 0.00 | 0.00 | 0.00 | 28 | 1007.7 |
| 20260508203838 | 65 | 146 | 2.6 | 2.6 | 0.00 | 0.00 | 0.00 | 26 | 1008.1 |
| 20260508203335 | 64 | 348 | 4.3 | 7.8 | 0.00 | 0.00 | 0.00 | 24 | 1008.0 |
| 20260508202830 | 64 | 194 | 1.7 | 1.7 | 0.00 | 0.00 | 0.00 | 26 | 1007.9 |
| 20260508202328 | 64 | 294 | 1.7 | 1.7 | 0.00 | 0.00 | 0.00 | 32 | 1008.0 |
| 20260508201825 | 65 | 280 | 4.3 | 7.0 | 0.00 | 0.00 | 0.00 | 27 | 1008.1 |
| 20260508201322 | 65 | 286 | 4.3 | 5.2 | 0.00 | 0.00 | 0.00 | 26 | 1008.0 |
| 20260508200818 | 64 | 185 | 1.7 | 1.7 | 0.00 | 0.00 | 0.00 | 28 | 1008.3 |
| 20260508200315 | 64 | 178 | 1.7 | 2.6 | 0.00 | 0.00 | 0.00 | 30 | 1008.4 |
| 20260508195811 | 63 | 50 | 1.7 | 1.7 | 0.00 | 0.00 | 0.00 | 27 | 1008.5 |
| 20260508195308 | 63 | 235 | 3.5 | 3.5 | 0.00 | 0.00 | 0.00 | 27 | 1008.6 |
| 20260508194804 | 65 | 208 | 1.7 | 1.7 | 0.00 | 0.00 | 0.00 | 28 | 1008.4 |
| 20260508194301 | 64 | 61 | 0.9 | 0.9 | 0.00 | 0.00 | 0.00 | 26 | 1008.7 |
| 20260508193758 | 64 | 223 | 1.7 | 1.7 | 0.00 | 0.00 | 0.00 | 29 | 1008.6 |
| 20260508193255 | 63 | 201 | 1.7 | 1.7 | 0.00 | 0.00 | 0.00 | 27 | 1008.6 |
| 20260508192751 | 63 | 307 | 2.6 | 5.2 | 0.00 | 0.00 | 0.00 | 24 | 1008.8 |
| 20260508192248 | 63 | 41 | 0.9 | 1.7 | 0.00 | 0.00 | 0.00 | 27 | 1008.8 |
| 20260508191746 | 63 | 185 | 5.2 | 7.0 | 0.00 | 0.00 | 0.00 | 26 | 1009.0 |
| 20260508191243 | 63 | 283 | 2.6 | 3.5 | 0.00 | 0.00 | 0.00 | 28 | 1009.0 |
| 20260508190740 | 63 | 269 | 1.7 | 2.6 | 0.00 | 0.00 | 0.00 | 29 | 1008.8 |
| 20260508190236 | 63 | 280 | 3.5 | 3.5 | 0.00 | 0.00 | 0.00 | 30 | 1009.1 |
| 20260508185733 | 63 | 287 | 2.6 | 2.6 | 0.00 | 0.00 | 0.00 | 29 | 1009.2 |
| 20260508185230 | 62 | 188 | 1.7 | 1.7 | 0.00 | 0.00 | 0.00 | 32 | 1009.1 |
| 20260508184727 | 63 | 231 | 3.5 | 3.5 | 0.00 | 0.00 | 0.00 | 28 | 1009.5 |
| 20260508184224 | 63 | 251 | 2.6 | 2.6 | 0.00 | 0.00 | 0.00 | 25 | 1009.4 |
| 20260508183721 | 63 | 285 | 2.6 | 2.6 | 0.00 | 0.00 | 0.00 | 30 | 1009.5 |
| 20260508183217 | 63 | 199 | 2.6 | 2.6 | 0.00 | 0.00 | 0.00 | 26 | 1009.5 |
| 20260508182713 | 62 | 274 | 0.9 | 0.9 | 0.00 | 0.00 | 0.00 | 26 | 1009.4 |
| 20260508182210 | 63 | 11 | 3.5 | 3.5 | 0.00 | 0.00 | 0.00 | 26 | 1009.4 |
| 20260508181706 | 63 | 61 | 1.7 | 1.7 | 0.00 | 0.00 | 0.00 | 28 | 1009.3 |
| 20260508181203 | 63 | 270 | 1.7 | 1.7 | 0.00 | 0.00 | 0.00 | 28 | 1009.4 |
| 20260508180700 | 62 | 195 | 0.9 | 0.9 | 0.00 | 0.00 | 0.00 | 31 | 1009.6 |
| 20260508180157 | 62 | 200 | 4.3 | 7.0 | 0.00 | 0.00 | 0.00 | 27 | 1009.9 |
| 20260508175653 | 61 | 181 | 1.7 | 2.6 | 0.00 | 0.00 | 0.00 | 26 | 1010.0 |
| 20260508175149 | 61 | 200 | 2.6 | 2.6 | 0.00 | 0.00 | 0.00 | 28 | 1009.9 |
| 20260508174648 | 61 | 231 | 0.0 | 0.0 | 0.00 | 0.00 | 0.00 | 30 | 1010.1 |
| 20260508174144 | 62 | 322 | 3.5 | 3.5 | 0.00 | 0.00 | 0.00 | 28 | 1010.4 |
| 20260508173641 | 62 | 61 | 1.7 | 1.7 | 0.00 | 0.00 | 0.00 | 25 | 1010.3 |
| 20260508173137 | 62 | 30 | 2.6 | 2.6 | 0.00 | 0.00 | 0.00 | 28 | 1010.2 |
| 20260508172634 | 63 | 282 | 0.9 | 0.9 | 0.00 | 0.00 | 0.00 | 35 | 1010.3 |
| 20260508172131 | 61 | 36 | 0.9 | 1.7 | 0.00 | 0.00 | 0.00 | 35 | 1010.1 |
| 20260508171628 | 61 | 84 | 2.6 | 2.6 | 0.00 | 0.00 | 0.00 | 29 | 1010.5 |
| 20260508171124 | 62 | 72 | 0.9 | 0.9 | 0.00 | 0.00 | 0.00 | 25 | 1010.5 |
| 20260508170621 | 61 | 269 | 1.7 | 1.7 | 0.00 | 0.00 | 0.00 | 27 | 1010.5 |
| 20260508170119 | 60 | 297 | 2.6 | 2.6 | 0.00 | 0.00 | 0.00 | 32 | 1010.8 |
| 20260508165616 | 60 | 106 | 1.7 | 2.6 | 0.00 | 0.00 | 0.00 | 29 | 1010.6 |
| 20260508165113 | 60 | 113 | 1.7 | 1.7 | 0.00 | 0.00 | 0.00 | 28 | 1010.9 |
| 20260508164609 | 60 | 192 | 0.9 | 0.9 | 0.00 | 0.00 | 0.00 | 31 | 1010.8 |
| 20260508164106 | 60 | 157 | 4.3 | 7.0 | 0.00 | 0.00 | 0.00 | 27 | 1010.9 |
| 20260508163603 | 60 | 321 | 0.9 | 1.7 | 0.00 | 0.00 | 0.00 | 30 | 1011.0 |
| 20260508163100 | 60 | 91 | 0.9 | 0.9 | 0.00 | 0.00 | 0.00 | 27 | 1011.2 |
| 20260508162556 | 62 | 258 | 3.5 | 5.2 | 0.00 | 0.00 | 0.00 | 29 | 1011.1 |
| 20260508162054 | 61 | 266 | 1.7 | 1.7 | 0.00 | 0.00 | 0.00 | 31 | 1011.2 |
| 20260508161550 | 60 | 350 | 1.7 | 1.7 | 0.00 | 0.00 | 0.00 | 31 | 1011.1 |
| 20260508161048 | 59 | 200 | 3.5 | 3.5 | 0.00 | 0.00 | 0.00 | 30 | 1011.1 |
| 20260508160546 | 59 | 195 | 3.5 | 3.5 | 0.00 | 0.00 | 0.00 | 30 | 1011.3 |
| 20260508160043 | 60 | 250 | 1.7 | 1.7 | 0.00 | 0.00 | 0.00 | 35 | 1011.2 |
| 20260508155540 | 59 | 110 | 0.9 | 0.9 | 0.00 | 0.00 | 0.00 | 35 | 1011.3 |
| 20260508155037 | 59 | 211 | 0.0 | 0.0 | 0.00 | 0.00 | 0.00 | 28 | 1011.2 |
| 20260508154534 | 59 | 1 | 0.9 | 0.9 | 0.00 | 0.00 | 0.00 | 30 | 1011.3 |
| 20260508154031 | 59 | 242 | 1.7 | 2.6 | 0.00 | 0.00 | 0.00 | 31 | 1011.2 |
| 20260508153527 | 58 | 331 | 1.7 | 1.7 | 0.00 | 0.00 | 0.00 | 31 | 1011.3 |
| 20260508153024 | 59 | 170 | 1.7 | 1.7 | 0.00 | 0.00 | 0.00 | 31 | 1011.5 |
| 20260508152521 | 59 | 226 | 0.9 | 0.9 | 0.00 | 0.00 | 0.00 | 37 | 1011.3 |
| 20260508152017 | 58 | 109 | 0.9 | 1.7 | 0.00 | 0.00 | 0.00 | 35 | 1011.6 |
| 20260508151514 | 57 | 181 | 0.0 | 0.0 | 0.00 | 0.00 | 0.00 | 40 | 1011.5 |
| 20260508151010 | 57 | 218 | 1.7 | 1.7 | 0.00 | 0.00 | 0.00 | 37 | 1011.5 |
| 20260508150508 | 57 | 197 | 0.9 | 1.7 | 0.00 | 0.00 | 0.00 | 38 | 1011.8 |
| 20260508150004 | 57 | 227 | 2.6 | 1.7 | 0.00 | 0.00 | 0.00 | 37 | 1011.5 |
| 20260508145500 | 57 | 74 | 1.7 | 2.6 | 0.00 | 0.00 | 0.00 | 37 | 1011.7 |
| 20260508144956 | 57 | 148 | 3.5 | 5.2 | 0.00 | 0.00 | 0.00 | 33 | 1011.7 |
| 20260508144454 | 57 | 158 | 0.9 | 0.9 | 0.00 | 0.00 | 0.00 | 41 | 1011.7 |
| 20260508143951 | 56 | 20 | 1.7 | 1.7 | 0.00 | 0.00 | 0.00 | 39 | 1011.7 |
| 20260508143449 | 56 | 106 | 0.9 | 0.9 | 0.00 | 0.00 | 0.00 | 45 | 1011.8 |
| 20260508142945 | 56 | 178 | 0.9 | 0.9 | 0.00 | 0.00 | 0.00 | 43 | 1011.8 |
| 20260508142442 | 56 | 105 | 0.9 | 0.9 | 0.00 | 0.00 | 0.00 | 40 | 1012.0 |
| 20260508141938 | 57 | 250 | 0.9 | 0.9 | 0.00 | 0.00 | 0.00 | 42 | 1011.8 |
| 20260508141435 | 57 | 187 | 1.7 | 1.7 | 0.00 | 0.00 | 0.00 | 48 | 1011.8 |
| 20260508140933 | 56 | 278 | 0.0 | 0.0 | 0.00 | 0.00 | 0.00 | 49 | 1012.1 |
| 20260508140430 | 55 | 285 | 0.0 | 0.9 | 0.00 | 0.00 | 0.00 | 45 | 1011.9 |
| 20260508135925 | 54 | 80 | 0.9 | 0.9 | 0.00 | 0.00 | 0.00 | 48 | 1011.9 |
| 20260508135422 | 55 | 216 | 0.0 | 0.9 | 0.00 | 0.00 | 0.00 | 42 | 1012.1 |
| 20260508134919 | 55 | 195 | 3.5 | 3.5 | 0.00 | 0.00 | 0.00 | 42 | 1012.1 |
| 20260508134415 | 54 | 314 | 0.9 | 0.9 | 0.00 | 0.00 | 0.00 | 48 | 1012.0 |
| 20260508133912 | 53 | 296 | 1.7 | 1.7 | 0.00 | 0.00 | 0.00 | 47 | 1012.2 |
| 20260508133410 | 53 | 173 | 1.7 | 1.7 | 0.00 | 0.00 | 0.00 | 49 | 1012.1 |
| 20260508132906 | 53 | 162 | 0.0 | 0.0 | 0.00 | 0.00 | 0.00 | 48 | 1012.4 |
| 20260508132405 | 52 | 164 | 1.7 | 1.7 | 0.00 | 0.00 | 0.00 | 54 | 1012.2 |
| 20260508131901 | 51 | 223 | 0.9 | 0.9 | 0.00 | 0.00 | 0.00 | 48 | 1012.1 |
| 20260508131356 | 51 | 260 | 0.9 | 1.7 | 0.00 | 0.00 | 0.00 | 51 | 1012.4 |
| 20260508130853 | 51 | 170 | 0.9 | 0.9 | 0.00 | 0.00 | 0.00 | 53 | 1012.4 |
| 20260508130349 | 51 | 141 | 1.7 | 1.7 | 0.00 | 0.00 | 0.00 | 51 | 1012.4 |
| 20260508125846 | 51 | 167 | 1.7 | 1.7 | 0.00 | 0.00 | 0.00 | 53 | 1012.4 |
| 20260508125342 | 50 | 185 | 0.0 | 0.0 | 0.00 | 0.00 | 0.00 | 61 | 1012.3 |
| 20260508124840 | 50 | 173 | 1.7 | 1.7 | 0.00 | 0.00 | 0.00 | 61 | 1012.3 |
| 20260508124337 | 50 | 115 | 0.9 | 0.9 | 0.00 | 0.00 | 0.00 | 59 | 1012.4 |
| 20260508123836 | 49 | 167 | 1.7 | 1.7 | 0.00 | 0.00 | 0.00 | 60 | 1012.3 |
| 20260508123334 | 49 | 175 | 0.0 | 0.9 | 0.00 | 0.00 | 0.00 | 63 | 1012.2 |
| 20260508122830 | 49 | 161 | 0.0 | 0.0 | 0.00 | 0.00 | 0.00 | 63 | 1012.3 |
| 20260508122327 | 48 | 121 | 0.0 | 0.0 | 0.00 | 0.00 | 0.00 | 72 | 1012.2 |
| 20260508121824 | 46 | 121 | 0.0 | 0.0 | 0.00 | 0.00 | 0.00 | 72 | 1012.0 |
| 20260508121322 | 45 | 121 | 0.0 | 0.0 | 0.00 | 0.00 | 0.00 | 76 | 1012.0 |
| 20260508120819 | 44 | 122 | 0.0 | 0.0 | 0.00 | 0.00 | 0.00 | 78 | 1011.9 |
| 20260508120317 | 42 | 122 | 0.0 | 0.0 | 0.00 | 0.00 | 0.00 | 80 | 1011.7 |
| 20260508115814 | 42 | 122 | 0.0 | 0.0 | 0.00 | 0.00 | 0.00 | 85 | 1011.8 |
| 20260508115312 | 42 | 122 | 0.0 | 0.0 | 0.00 | 0.00 | 0.00 | 85 | 1011.9 |
| 20260508114809 | 40 | 122 | 0.0 | 0.0 | 0.00 | 0.00 | 0.00 | 92 | 1011.7 |
| 20260508114306 | 39 | 122 | 0.0 | 0.0 | 0.00 | 0.00 | 0.00 | 94 | 1011.6 |
| 20260508113802 | 38 | 122 | 0.0 | 0.0 | 0.00 | 0.00 | 0.00 | 96 | 1011.8 |
| 20260508113300 | 36 | 120 | 0.0 | 0.0 | 0.00 | 0.00 | 0.00 | 96 | 1012.0 |
| 20260508112756 | 34 | 121 | 0.0 | 0.0 | 0.00 | 0.00 | 0.00 | 96 | 1011.8 |
| 20260508112253 | 34 | 123 | 0.0 | 0.0 | 0.00 | 0.00 | 0.00 | 96 | 1011.6 |
| 20260508111749 | 34 | 123 | 0.0 | 0.0 | 0.00 | 0.00 | 0.00 | 96 | 1011.7 |
| 20260508111247 | 34 | 122 | 0.0 | 0.0 | 0.00 | 0.00 | 0.00 | 96 | 1011.5 |
| 20260508110744 | 34 | 122 | 0.0 | 0.0 | 0.00 | 0.00 | 0.00 | 96 | 1011.6 |
| 20260508110242 | 33 | 122 | 0.0 | 0.0 | 0.00 | 0.00 | 0.00 | 96 | 1011.4 |
| 20260508105742 | 32 | 122 | 0.0 | 0.0 | 0.00 | 0.00 | 0.00 | 96 | 1011.7 |
| 20260508105239 | 31 | 122 | 0.0 | 0.0 | 0.00 | 0.00 | 0.00 | 96 | 1011.7 |
| 20260508104736 | 31 | 123 | 0.0 | 0.0 | 0.00 | 0.00 | 0.00 | 95 | 1011.6 |
| 20260508104233 | 31 | 123 | 0.0 | 0.0 | 0.00 | 0.00 | 0.00 | 95 | 1011.8 |
| 20260508103730 | 31 | 123 | 0.0 | 0.0 | 0.00 | 0.00 | 0.00 | 95 | 1011.5 |
| 20260508103227 | 32 | 123 | 0.0 | 0.0 | 0.00 | 0.00 | 0.00 | 95 | 1011.6 |
| 20260508102724 | 32 | 123 | 0.0 | 0.0 | 0.00 | 0.00 | 0.00 | 95 | 1011.8 |
| 20260508102222 | 32 | 123 | 0.0 | 0.0 | 0.00 | 0.00 | 0.00 | 95 | 1011.8 |
| 20260508101719 | 32 | 123 | 0.0 | 0.0 | 0.00 | 0.00 | 0.00 | 95 | 1011.6 |
| 20260508101217 | 32 | 123 | 0.0 | 0.0 | 0.00 | 0.00 | 0.00 | 95 | 1011.4 |
| 20260508100714 | 32 | 123 | 0.0 | 0.0 | 0.00 | 0.00 | 0.00 | 95 | 1011.8 |
| 20260508100212 | 31 | 123 | 0.0 | 0.0 | 0.00 | 0.00 | 0.00 | 95 | 1011.6 |
| 20260508095708 | 32 | 123 | 0.0 | 0.0 | 0.00 | 0.00 | 0.00 | 95 | 1011.6 |
| 20260508095206 | 31 | 123 | 0.0 | 0.0 | 0.00 | 0.00 | 0.00 | 95 | 1011.6 |
| 20260508094702 | 32 | 123 | 0.0 | 0.0 | 0.00 | 0.00 | 0.00 | 95 | 1011.7 |
| 20260508094159 | 32 | 123 | 0.0 | 0.0 | 0.00 | 0.00 | 0.00 | 95 | 1011.7 |
| 20260508093656 | 33 | 123 | 0.0 | 0.0 | 0.00 | 0.00 | 0.00 | 95 | 1011.6 |
| 20260508093154 | 33 | 123 | 0.0 | 0.0 | 0.00 | 0.00 | 0.00 | 95 | 1011.6 |
| 20260508092651 | 33 | 123 | 0.0 | 0.0 | 0.00 | 0.00 | 0.00 | 95 | 1011.6 |
| 20260508092149 | 33 | 123 | 0.0 | 0.0 | 0.00 | 0.00 | 0.00 | 95 | 1011.8 |
| 20260508091646 | 33 | 123 | 0.0 | 0.0 | 0.00 | 0.00 | 0.00 | 94 | 1011.7 |
| 20260508091143 | 33 | 123 | 0.0 | 0.0 | 0.00 | 0.00 | 0.00 | 94 | 1011.8 |
| 20260508090641 | 33 | 123 | 0.0 | 0.0 | 0.00 | 0.00 | 0.00 | 94 | 1011.7 |
| 20260508090138 | 34 | 123 | 0.0 | 0.0 | 0.00 | 0.00 | 0.00 | 94 | 1011.8 |
| 20260508085634 | 34 | 123 | 0.0 | 0.0 | 0.00 | 0.00 | 0.00 | 94 | 1011.7 |
| 20260508085131 | 34 | 123 | 0.0 | 0.0 | 0.00 | 0.00 | 0.00 | 94 | 1011.7 |
| 20260508084628 | 35 | 123 | 0.0 | 0.0 | 0.00 | 0.00 | 0.00 | 94 | 1011.8 |
| 20260508084125 | 35 | 123 | 0.0 | 0.0 | 0.00 | 0.00 | 0.00 | 94 | 1011.7 |
| 20260508083622 | 35 | 123 | 0.0 | 0.0 | 0.00 | 0.00 | 0.00 | 93 | 1011.8 |
| 20260508083119 | 35 | 123 | 0.0 | 0.0 | 0.00 | 0.00 | 0.00 | 93 | 1011.8 |
| 20260508082615 | 35 | 123 | 0.0 | 0.0 | 0.00 | 0.00 | 0.00 | 93 | 1011.6 |
| 20260508082112 | 36 | 123 | 0.0 | 0.0 | 0.00 | 0.00 | 0.00 | 93 | 1011.8 |
| 20260508081610 | 36 | 123 | 0.0 | 0.0 | 0.00 | 0.00 | 0.00 | 92 | 1011.7 |
| 20260508081106 | 37 | 123 | 0.0 | 0.0 | 0.00 | 0.00 | 0.00 | 93 | 1011.6 |
| 20260508080604 | 37 | 123 | 0.0 | 0.0 | 0.00 | 0.00 | 0.00 | 93 | 1011.8 |
| 20260508080101 | 37 | 123 | 0.0 | 0.0 | 0.00 | 0.00 | 0.00 | 92 | 1012.0 |
| 20260508075557 | 37 | 123 | 0.0 | 0.0 | 0.00 | 0.00 | 0.00 | 92 | 1012.0 |
| 20260508075055 | 38 | 123 | 0.0 | 0.0 | 0.00 | 0.00 | 0.00 | 92 | 1011.8 |
| 20260508074552 | 38 | 123 | 0.0 | 0.0 | 0.00 | 0.00 | 0.00 | 92 | 1011.8 |
| 20260508074049 | 38 | 123 | 0.0 | 0.0 | 0.00 | 0.00 | 0.00 | 92 | 1011.9 |
| 20260508073546 | 38 | 123 | 0.0 | 0.0 | 0.00 | 0.00 | 0.00 | 92 | 1012.0 |
| 20260508073044 | 38 | 123 | 0.0 | 0.0 | 0.00 | 0.00 | 0.00 | 91 | 1011.9 |
| 20260508072539 | 39 | 123 | 0.0 | 0.0 | 0.00 | 0.00 | 0.00 | 91 | 1011.9 |
| 20260508072037 | 39 | 123 | 0.0 | 0.0 | 0.00 | 0.00 | 0.00 | 91 | 1011.7 |
| 20260508071535 | 39 | 123 | 0.0 | 0.0 | 0.00 | 0.00 | 0.00 | 90 | 1011.6 |
| 20260508071032 | 39 | 123 | 0.0 | 0.0 | 0.00 | 0.00 | 0.00 | 90 | 1011.9 |
| 20260508070530 | 40 | 123 | 0.0 | 0.0 | 0.00 | 0.00 | 0.00 | 88 | 1011.8 |
| 20260508070028 | 40 | 123 | 0.0 | 0.0 | 0.00 | 0.00 | 0.00 | 88 | 1011.7 |
| 20260508065525 | 40 | 123 | 0.0 | 0.0 | 0.00 | 0.00 | 0.00 | 87 | 1011.7 |
| 20260508065023 | 40 | 124 | 0.0 | 0.0 | 0.00 | 0.00 | 0.00 | 87 | 1011.8 |
| 20260508064520 | 40 | 124 | 0.0 | 0.0 | 0.00 | 0.00 | 0.00 | 90 | 1011.7 |
| 20260508064018 | 40 | 123 | 0.0 | 0.0 | 0.00 | 0.00 | 0.00 | 90 | 1012.1 |
| 20260508063515 | 40 | 123 | 0.0 | 0.0 | 0.00 | 0.00 | 0.00 | 89 | 1011.9 |
| 20260508063013 | 40 | 123 | 0.0 | 0.0 | 0.00 | 0.00 | 0.00 | 89 | 1011.8 |
| 20260508062511 | 40 | 123 | 0.0 | 0.0 | 0.00 | 0.00 | 0.00 | 88 | 1011.8 |
| 20260508062007 | 41 | 123 | 0.0 | 0.0 | 0.00 | 0.00 | 0.00 | 87 | 1011.5 |
| 20260508061506 | 41 | 123 | 0.0 | 0.0 | 0.00 | 0.00 | 0.00 | 87 | 1011.7 |
| 20260508061001 | 41 | 123 | 0.0 | 0.0 | 0.00 | 0.00 | 0.00 | 85 | 1011.9 |
| 20260508060459 | 41 | 123 | 0.0 | 0.0 | 0.00 | 0.00 | 0.00 | 87 | 1012.0 |
| 20260508055954 | 41 | 123 | 0.0 | 0.0 | 0.00 | 0.00 | 0.00 | 88 | 1012.2 |
| 20260508055452 | 41 | 123 | 0.0 | 0.0 | 0.00 | 0.00 | 0.00 | 88 | 1012.0 |
| 20260508054948 | 41 | 123 | 0.0 | 0.0 | 0.00 | 0.00 | 0.00 | 87 | 1012.0 |
| 20260508054445 | 41 | 123 | 0.0 | 0.0 | 0.00 | 0.00 | 0.00 | 86 | 1012.2 |
| 20260508053942 | 42 | 123 | 0.0 | 0.0 | 0.00 | 0.00 | 0.00 | 86 | 1012.4 |
| 20260508053439 | 42 | 123 | 0.0 | 0.0 | 0.00 | 0.00 | 0.00 | 86 | 1012.1 |
| 20260508052937 | 42 | 124 | 0.0 | 0.9 | 0.00 | 0.00 | 0.00 | 85 | 1012.1 |
| 20260508052434 | 42 | 81 | 0.9 | 0.9 | 0.00 | 0.00 | 0.00 | 87 | 1012.2 |
| 20260508051930 | 42 | 81 | 0.0 | 0.0 | 0.00 | 0.00 | 0.00 | 86 | 1012.3 |
| 20260508051426 | 42 | 81 | 0.0 | 0.0 | 0.00 | 0.00 | 0.00 | 86 | 1012.3 |
| 20260508050922 | 42 | 81 | 0.0 | 0.0 | 0.00 | 0.00 | 0.00 | 85 | 1012.3 |
| 20260508050419 | 42 | 81 | 0.9 | 0.0 | 0.00 | 0.00 | 0.00 | 83 | 1012.2 |
| 20260508045915 | 42 | 81 | 0.9 | 0.9 | 0.00 | 0.00 | 0.00 | 85 | 1012.1 |
| 20260508045413 | 42 | 81 | 0.0 | 0.0 | 0.00 | 0.00 | 0.00 | 85 | 1012.2 |
| 20260508044910 | 42 | 81 | 0.0 | 0.0 | 0.00 | 0.00 | 0.00 | 85 | 1012.3 |
| 20260508044408 | 42 | 81 | 0.0 | 0.0 | 0.00 | 0.00 | 0.00 | 85 | 1012.0 |
| 20260508043903 | 42 | 81 | 0.0 | 0.0 | 0.00 | 0.00 | 0.00 | 85 | 1012.0 |
| 20260508043400 | 42 | 81 | 0.0 | 0.0 | 0.00 | 0.00 | 0.00 | 83 | 1012.2 |
| 20260508042856 | 42 | 81 | 0.0 | 0.0 | 0.00 | 0.00 | 0.00 | 81 | 1012.2 |
| 20260508042354 | 42 | 81 | 0.0 | 0.0 | 0.00 | 0.00 | 0.00 | 80 | 1012.2 |
| 20260508041851 | 42 | 81 | 0.0 | 0.0 | 0.00 | 0.00 | 0.00 | 81 | 1012.2 |
| 20260508041347 | 42 | 78 | 0.0 | 0.0 | 0.00 | 0.00 | 0.00 | 83 | 1012.3 |
| 20260508040844 | 42 | 78 | 0.0 | 0.0 | 0.00 | 0.00 | 0.00 | 81 | 1012.2 |
| 20260508040341 | 42 | 78 | 0.0 | 0.0 | 0.00 | 0.00 | 0.00 | 79 | 1012.1 |
| 20260508035839 | 42 | 77 | 0.9 | 0.9 | 0.00 | 0.00 | 0.00 | 78 | 1012.1 |
| 20260508035336 | 42 | 77 | 0.0 | 0.0 | 0.00 | 0.00 | 0.00 | 82 | 1012.3 |
| 20260508034833 | 42 | 77 | 0.0 | 0.0 | 0.00 | 0.00 | 0.00 | 81 | 1012.2 |
| 20260508034330 | 42 | 77 | 0.0 | 0.0 | 0.00 | 0.00 | 0.00 | 80 | 1012.2 |
| 20260508033826 | 42 | 77 | 0.0 | 0.0 | 0.00 | 0.00 | 0.00 | 78 | 1012.1 |
| 20260508033325 | 41 | 77 | 0.0 | 0.0 | 0.00 | 0.00 | 0.00 | 82 | 1012.3 |
| 20260508032822 | 41 | 77 | 0.0 | 0.0 | 0.00 | 0.00 | 0.00 | 83 | 1012.1 |